Hlavní strana
METAR-TAF:

METAR-TAF

Letiště :

Ringkøbing-Skjern, Dánsko

zeměpisná šířka: 56-00N, zeměpisná délka: 008-21E, výška: 5 m

Aktuální stav počasí

Zpráva byla vytvořena před 4 hodinami a 4 minutami, v 13:50 UTC
Západoseverozápadní vítr 10 kt
Teplota 5°C
Vlhkost vzduchu 70%
Tlak 1015 hPa
Viditelnost 10 km a více
Skoro jasno ve výšce 2000 ft, Cumulonimbus.
přeháňky v blízkosti

METAR: EKVJ 181350Z 29010KT 9999 VCSH FEW020CB 05/00 Q1015

Čas: 18:54 (17:54 UTC)

Předpověď počasí

Zpráva byla vytvořena před 5 hodinami a 59 minutami, v 11:55 UTC
Předpověď platná od 18 v 12 UTC do 18 v 16 UTC
Severozápadní vítr 5 kt
Viditelnost 10 km a více
Skoro jasno ve výšce 3000 ft

TAF: EKVJ 181155Z 1812/1816 32005KT 9999 FEW030

Stav a předpovědi počasí z více než 4 000 letišť (zprávy METAR a TAF).

Červené a žluté tečky na mapě představují dostupné meteorologické stanice.

Když kurzor umístíte na tečku, zobrazí se název stanice.

Pak kliknutím zobrazíte stav a předpověď počasí.

Chcete-li změnit mapu, kliknutím na zelené tlačítko se znaménkem +mapu přiblížíte, kliknutím na zelené tlačítko se znaménkem – mapu oddálíte a kliknutím na zelené šipky přejdete na sousední mapy.


METAR-TAF: